Time;durP1;ratioP1;P1;durP2;ratioP2;P2;SDS_P1;SDS_P2;PMS_P1;PMS_P2;Temp;Humidity;BMP_temperature;BMP_pressure;BME280_temperature;BME280_humidity;BME280_pressure;Samples;Min_cycle;Max_cycle;Signal;HPM_P1;HPM_P2
2022/03/01 00:01:20;;;;;;;20.25;13.52;;;;;;;4.00;61.10;102630.41;5030035;28;20025;-74
2022/03/01 00:03:45;;;;;;;21.73;13.63;;;;;;;3.96;61.20;102627.19;5032367;28;20037;-76
2022/03/01 00:06:11;;;;;;;20.27;13.77;;;;;;;3.94;61.28;102647.03;5032433;28;20056;-75
2022/03/01 00:08:36;;;;;;;20.67;13.38;;;;;;;3.92;61.03;102643.66;5014264;28;20111;-79
2022/03/01 00:11:01;;;;;;;20.05;13.57;;;;;;;3.89;60.87;102640.28;5011073;28;20037;-76
2022/03/01 00:13:27;;;;;;;23.65;14.60;;;;;;;3.84;61.30;102644.34;5014616;28;20037;-76
2022/03/01 00:15:52;;;;;;;21.08;13.35;;;;;;;3.81;61.25;102632.06;5016055;28;20030;-74
2022/03/01 00:18:17;;;;;;;20.30;13.93;;;;;;;3.77;60.61;102638.69;5016839;28;20034;-75
2022/03/01 00:20:42;;;;;;;21.65;13.70;;;;;;;3.73;61.45;102624.72;5016519;28;20021;-73
2022/03/01 00:23:08;;;;;;;22.20;13.55;;;;;;;3.70;61.83;102630.34;5043732;28;20123;-76
2022/03/01 00:25:33;;;;;;;21.52;13.80;;;;;;;3.65;61.39;102632.56;5036278;28;20044;-74
2022/03/01 00:27:58;;;;;;;19.42;13.30;;;;;;;3.64;61.50;102635.38;5035902;28;20032;-74
2022/03/01 00:30:24;;;;;;;18.08;12.70;;;;;;;3.63;62.07;102628.34;5034766;28;20033;-75
2022/03/01 00:32:49;;;;;;;18.90;13.75;;;;;;;3.60;61.65;102629.47;5034783;28;20400;-75
2022/03/01 00:35:15;;;;;;;20.77;13.18;;;;;;;3.56;61.52;102633.38;5035859;28;20469;-79
2022/03/01 00:37:40;;;;;;;22.85;13.40;;;;;;;3.54;61.62;102630.00;5022304;28;20034;-73
2022/03/01 00:40:06;;;;;;;18.98;12.98;;;;;;;3.54;61.86;102635.34;5014696;28;20472;-73
2022/03/01 00:42:31;;;;;;;20.55;13.13;;;;;;;3.49;62.06;102640.28;5016106;28;20029;-73
2022/03/01 00:44:56;;;;;;;20.20;13.25;;;;;;;3.46;62.07;102643.22;5014655;28;20489;-73
2022/03/01 00:47:22;;;;;;;19.98;13.27;;;;;;;3.41;61.78;102637.41;5016007;28;20055;-74
2022/03/01 00:49:47;;;;;;;20.77;13.50;;;;;;;3.36;62.36;102644.00;5014401;28;20034;-74
2022/03/01 00:52:12;;;;;;;21.80;13.25;;;;;;;3.29;62.19;102634.84;5028108;28;20372;-75
2022/03/01 00:54:38;;;;;;;22.60;13.73;;;;;;;3.23;62.83;102627.34;5035394;28;20026;-71
2022/03/01 00:57:03;;;;;;;19.70;13.27;;;;;;;3.26;62.27;102631.56;5035402;28;20527;-73
2022/03/01 00:59:29;;;;;;;20.77;13.70;;;;;;;3.23;62.67;102640.72;5034350;28;20029;-77
2022/03/01 01:01:54;;;;;;;20.83;13.02;;;;;;;3.23;62.18;102638.03;5033009;28;20029;-76
2022/03/01 01:04:19;;;;;;;20.38;13.02;;;;;;;3.18;62.15;102634.91;5035356;28;20025;-71
2022/03/01 01:06:44;;;;;;;23.38;13.65;;;;;;;3.20;62.65;102638.28;5023049;28;20121;-74
2022/03/01 01:09:12;;;;;;;22.77;12.98;;;;;;;3.20;62.58;102632.94;5013800;28;20026;-74
2022/03/01 01:11:38;;;;;;;21.55;12.82;;;;;;;3.24;62.20;102629.00;5015490;28;20030;-76
2022/03/01 01:14:03;;;;;;;19.85;12.32;;;;;;;3.27;61.89;102633.25;5015660;28;20033;-75
2022/03/01 01:16:29;;;;;;;20.60;12.45;;;;;;;3.25;62.53;102628.03;5014359;28;20041;-74
2022/03/01 01:18:55;;;;;;;19.77;12.90;;;;;;;3.25;62.37;102632.56;5015507;28;20030;-77
2022/03/01 01:21:21;;;;;;;19.17;12.32;;;;;;;3.23;62.54;102630.00;5016089;28;20033;-74
2022/03/01 01:23:46;;;;;;;22.30;13.00;;;;;;;3.22;61.65;102630.16;5013690;28;20084;-73
2022/03/01 01:26:11;;;;;;;20.17;12.73;;;;;;;3.23;62.14;102624.66;5015048;28;20064;-73
2022/03/01 01:28:37;;;;;;;19.65;13.00;;;;;;;3.21;62.40;102629.28;5014948;28;20473;-76
2022/03/01 01:31:02;;;;;;;22.23;13.13;;;;;;;3.24;61.85;102629.00;5013744;28;20022;-74
2022/03/01 01:33:27;;;;;;;22.98;13.25;;;;;;;3.22;61.72;102622.97;5015242;28;20034;-74
2022/03/01 01:35:53;;;;;;;20.00;13.07;;;;;;;3.24;62.22;102626.34;5015232;28;20038;-76
2022/03/01 01:38:18;;;;;;;18.75;12.90;;;;;;;3.24;61.46;102628.19;5015112;28;20026;-74
2022/03/01 01:40:43;;;;;;;16.10;11.68;;;;;;;3.22;61.33;102628.31;5015359;28;20030;-75
2022/03/01 01:43:08;;;;;;;18.98;13.10;;;;;;;3.19;62.01;102632.09;5014603;28;20029;-77
2022/03/01 01:45:34;;;;;;;21.55;13.30;;;;;;;3.17;61.95;102633.19;5013647;28;20026;-72
2022/03/01 01:48:01;;;;;;;20.17;13.07;;;;;;;3.16;62.18;102631.53;5014429;28;20056;-72
2022/03/01 01:50:29;;;;;;;22.92;12.75;;;;;;;3.16;61.47;102629.69;5022988;28;20060;-73
2022/03/01 01:52:55;;;;;;;20.00;13.07;;;;;;;3.15;61.98;102627.13;5033333;28;20033;-78
2022/03/01 01:55:22;;;;;;;19.08;12.77;;;;;;;3.15;62.64;102609.25;5034502;28;20025;-71
2022/03/01 01:57:48;;;;;;;21.80;13.05;;;;;;;3.18;61.86;102619.69;5034294;28;20033;-74
2022/03/01 02:00:16;;;;;;;20.80;12.68;;;;;;;3.22;61.84;102620.28;5034212;28;20037;-74
2022/03/01 02:02:41;;;;;;;20.85;13.20;;;;;;;3.18;61.98;102618.84;5031757;28;20444;-73
2022/03/01 02:05:08;;;;;;;19.45;12.60;;;;;;;3.20;61.71;102622.22;5033437;28;20033;-79
2022/03/01 02:07:34;;;;;;;19.45;12.73;;;;;;;3.20;62.12;102614.19;5033833;28;20051;-74
2022/03/01 02:09:59;;;;;;;19.65;13.00;;;;;;;3.22;62.01;102617.59;5034199;28;20025;-75
2022/03/01 02:12:24;;;;;;;20.10;13.10;;;;;;;3.26;61.86;102618.19;5034370;28;20389;-76
2022/03/01 02:14:50;;;;;;;18.85;12.57;;;;;;;3.25;62.29;102612.00;5034224;28;20513;-73
2022/03/01 02:17:16;;;;;;;19.38;12.07;;;;;;;3.23;61.22;102608.63;5032717;28;20044;-76
2022/03/01 02:19:47;;;;;;;24.73;13.13;;;;;;;3.24;61.61;102614.81;5030633;28;20461;-74
2022/03/01 02:22:12;;;;;;;18.38;12.27;;;;;;;3.23;61.50;102611.28;5014952;28;20065;-75
2022/03/01 02:24:37;;;;;;;19.60;13.13;;;;;;;3.25;61.54;102609.31;5013993;28;20066;-72
2022/03/01 02:27:04;;;;;;;18.25;12.50;;;;;;;3.25;61.88;102613.81;5013938;28;20576;-74
2022/03/01 02:29:30;;;;;;;18.67;12.27;;;;;;;3.24;61.01;102615.63;5014161;28;20034;-77
2022/03/01 02:31:59;;;;;;;23.48;12.73;;;;;;;3.26;61.54;102615.50;5012821;28;20037;-76
2022/03/01 02:34:25;;;;;;;21.98;12.48;;;;;;;3.21;62.04;102615.91;5011750;28;20366;-77
2022/03/01 02:36:50;;;;;;;18.88;12.52;;;;;;;3.27;62.10;102611.84;5030854;28;20087;-73
2022/03/01 02:39:16;;;;;;;17.95;12.60;;;;;;;3.27;60.79;102612.69;5033369;28;20087;-72
2022/03/01 02:41:44;;;;;;;17.83;11.73;;;;;;;3.25;61.94;102605.81;5033858;28;20080;-74
2022/03/01 02:44:10;;;;;;;18.40;11.63;;;;;;;3.28;61.46;102602.84;5033435;28;20025;-79
2022/03/01 02:46:36;;;;;;;20.25;12.38;;;;;;;3.31;61.44;102603.44;5033677;28;20424;-79
2022/03/01 02:49:03;;;;;;;19.88;12.65;;;;;;;3.30;61.31;102601.72;5032322;28;20036;-73
2022/03/01 02:51:28;;;;;;;18.77;12.30;;;;;;;3.30;61.28;102596.38;5018077;28;20034;-79
2022/03/01 02:53:53;;;;;;;17.35;11.52;;;;;;;3.34;61.33;102600.47;5015238;28;20472;-77
2022/03/01 02:56:18;;;;;;;23.40;12.57;;;;;;;3.37;61.06;102594.84;5014547;28;20068;-74
2022/03/01 02:58:44;;;;;;;17.05;11.27;;;;;;;3.37;60.39;102591.34;5014839;28;20033;-70
2022/03/01 03:01:09;;;;;;;19.75;12.13;;;;;;;3.41;61.67;102591.91;5010395;28;20462;-76
2022/03/01 03:03:34;;;;;;;16.65;11.48;;;;;;;3.39;60.65;102599.25;5013806;28;20030;-77
2022/03/01 03:06:00;;;;;;;18.30;11.52;;;;;;;3.42;60.50;102591.78;5023941;28;20033;-75
2022/03/01 03:08:26;;;;;;;19.05;10.95;;;;;;;3.45;60.36;102596.03;5033416;28;20064;-73
2022/03/01 03:10:51;;;;;;;18.55;12.20;;;;;;;3.43;60.42;102589.94;5033651;28;20057;-73
2022/03/01 03:13:17;;;;;;;18.40;11.45;;;;;;;3.46;59.85;102590.53;5033440;28;20473;-73
2022/03/01 03:15:42;;;;;;;18.65;11.52;;;;;;;3.43;59.08;102579.22;5033639;28;20354;-75
2022/03/01 03:18:07;;;;;;;18.23;11.75;;;;;;;3.47;60.46;102591.38;5032050;28;20033;-72
2022/03/01 03:20:34;;;;;;;19.13;11.68;;;;;;;3.46;59.67;102595.06;5023245;28;20034;-73
2022/03/01 03:22:59;;;;;;;18.88;11.80;;;;;;;3.47;59.01;102586.88;5013329;28;20025;-72
2022/03/01 03:25:24;;;;;;;18.98;11.88;;;;;;;3.49;60.10;102589.44;5012966;28;20526;-71
2022/03/01 03:27:49;;;;;;;19.52;12.52;;;;;;;3.48;59.43;102590.41;5013159;28;20152;-77
2022/03/01 03:30:15;;;;;;;19.67;12.15;;;;;;;3.51;60.29;102582.94;5012919;28;20040;-74
2022/03/01 03:32:40;;;;;;;20.05;12.13;;;;;;;3.52;59.96;102590.00;5012777;28;20393;-74
2022/03/01 03:35:06;;;;;;;20.02;12.32;;;;;;;3.51;59.82;102582.94;5020780;28;20048;-70
2022/03/01 03:37:31;;;;;;;20.77;12.35;;;;;;;3.54;60.09;102584.50;5032438;28;20029;-74
2022/03/01 03:39:57;;;;;;;20.13;12.25;;;;;;;3.52;60.14;102595.34;5031675;28;20037;-72
2022/03/01 03:42:22;;;;;;;18.45;11.50;;;;;;;3.50;60.67;102596.44;5032385;28;20428;-72
2022/03/01 03:44:48;;;;;;;19.92;11.40;;;;;;;3.49;59.99;102590.25;5032494;28;20423;-73
2022/03/01 03:47:13;;;;;;;18.52;12.35;;;;;;;3.49;60.65;102592.09;5032259;28;20136;-74
2022/03/01 03:49:39;;;;;;;17.20;11.55;;;;;;;3.51;60.80;102592.81;5026009;28;20033;-74
2022/03/01 03:52:06;;;;;;;19.10;12.27;;;;;;;3.48;59.25;102588.56;5012864;28;20117;-71
2022/03/01 03:54:32;;;;;;;19.65;12.57;;;;;;;3.51;59.87;102593.63;5012835;28;20030;-72
2022/03/01 03:56:57;;;;;;;17.88;11.85;;;;;;;3.48;59.66;102587.72;5012820;28;20061;-73
2022/03/01 03:59:22;;;;;;;18.77;11.80;;;;;;;3.49;60.07;102589.44;5030314;28;20061;-75
2022/03/01 04:01:47;;;;;;;20.58;11.55;;;;;;;3.49;60.28;102589.44;5029855;28;20029;-72
2022/03/01 04:04:13;;;;;;;18.55;12.00;;;;;;;3.48;60.85;102590.41;5029210;28;20462;-71
2022/03/01 04:06:38;;;;;;;18.58;12.32;;;;;;;3.45;60.05;102583.47;5012845;28;20080;-75
2022/03/01 04:09:04;;;;;;;21.10;12.77;;;;;;;3.47;61.00;102591.38;5012642;28;20045;-72
2022/03/01 04:11:30;;;;;;;18.58;12.23;;;;;;;3.47;60.01;102588.69;5012419;28;20029;-74
2022/03/01 04:13:57;;;;;;;18.77;11.43;;;;;;;3.46;60.46;102595.06;5011372;28;20524;-74
2022/03/01 04:16:22;;;;;;;19.13;11.95;;;;;;;3.46;60.68;102597.72;5012356;28;20088;-73
2022/03/01 04:18:47;;;;;;;19.48;12.77;;;;;;;3.46;60.48;102592.38;5012202;28;20470;-75
2022/03/01 04:21:14;;;;;;;19.65;12.20;;;;;;;3.44;61.14;102595.19;5032287;28;20037;-73
2022/03/01 04:23:39;;;;;;;20.75;12.73;;;;;;;3.45;60.95;102601.38;5032129;28;20034;-70
2022/03/01 04:26:05;;;;;;;18.23;12.48;;;;;;;3.45;60.34;102593.34;5032287;28;20030;-73
2022/03/01 04:28:30;;;;;;;19.05;12.82;;;;;;;3.46;59.68;102592.38;5031934;28;20362;-74
2022/03/01 04:30:55;;;;;;;20.63;12.60;;;;;;;3.48;59.68;102599.25;5032256;28;20037;-72
2022/03/01 04:33:21;;;;;;;19.33;13.10;;;;;;;3.47;58.61;102602.06;5031589;28;20037;-73
2022/03/01 04:35:47;;;;;;;20.35;12.27;;;;;;;3.49;59.79;102600.97;5012810;28;20041;-73
2022/03/01 04:38:12;;;;;;;19.52;12.38;;;;;;;3.51;59.79;102595.47;5010827;28;20389;-75
2022/03/01 04:40:38;;;;;;;17.17;12.07;;;;;;;3.52;59.38;102592.66;5012237;28;20400;-72
2022/03/01 04:43:04;;;;;;;20.70;12.75;;;;;;;3.58;59.12;102601.13;5012002;28;20109;-73
2022/03/01 04:45:30;;;;;;;21.75;13.02;;;;;;;3.58;59.21;102595.78;5010896;28;20626;-75
2022/03/01 04:47:56;;;;;;;19.83;12.40;;;;;;;3.60;59.84;102594.66;5012338;28;20044;-71
2022/03/01 04:50:21;;;;;;;18.42;12.10;;;;;;;3.57;59.23;102588.75;5013088;28;20026;-73
2022/03/01 04:52:46;;;;;;;20.58;13.02;;;;;;;3.62;58.69;102590.00;5012567;28;20113;-74
2022/03/01 04:55:12;;;;;;;20.30;12.10;;;;;;;3.60;57.94;102588.47;5012048;28;20053;-71
2022/03/01 04:57:37;;;;;;;19.55;12.57;;;;;;;3.59;59.54;102587.59;5012693;28;20458;-73
2022/03/01 05:00:10;;;;;;;22.60;12.48;;;;;;;3.63;58.79;102586.34;5014488;28;20030;-73
2022/03/01 05:02:36;;;;;;;20.33;12.80;;;;;;;3.62;59.63;102584.66;5013280;28;20038;-76
2022/03/01 05:05:02;;;;;;;18.27;12.38;;;;;;;3.62;59.09;102581.13;5046137;28;20033;-69
2022/03/01 05:07:27;;;;;;;18.27;12.43;;;;;;;3.66;59.53;102583.41;5035148;28;20480;-77
2022/03/01 05:09:52;;;;;;;20.15;12.30;;;;;;;3.66;59.13;102586.09;5035396;28;20021;-75
2022/03/01 05:12:19;;;;;;;20.67;11.90;;;;;;;3.64;59.27;102584.50;5034066;28;20045;-70
2022/03/01 05:14:44;;;;;;;23.33;13.18;;;;;;;3.64;59.51;102582.72;5035607;28;20072;-74
2022/03/01 05:17:11;;;;;;;19.58;12.60;;;;;;;3.67;59.30;102579.75;5035019;28;20103;-75
2022/03/01 05:19:37;;;;;;;19.00;12.63;;;;;;;3.69;59.19;102577.78;5033631;28;20083;-75
2022/03/01 05:22:02;;;;;;;21.48;13.25;;;;;;;3.68;60.14;102580.59;5035075;28;20034;-73
2022/03/01 05:24:28;;;;;;;19.30;12.75;;;;;;;3.68;60.07;102573.44;5034517;28;20440;-73
2022/03/01 05:26:54;;;;;;;21.27;12.45;;;;;;;3.67;59.85;102574.41;5035058;28;20079;-74
2022/03/01 05:29:19;;;;;;;20.05;12.73;;;;;;;3.69;59.69;102572.41;5034747;28;20033;-73
2022/03/01 05:31:45;;;;;;;21.35;12.68;;;;;;;3.66;59.60;102559.31;5035119;28;20033;-77
2022/03/01 05:34:10;;;;;;;21.92;13.05;;;;;;;3.62;58.46;102563.22;5020274;28;20037;-73
2022/03/01 05:36:36;;;;;;;22.20;12.85;;;;;;;3.63;58.30;102556.06;5014914;28;20045;-73
2022/03/01 05:39:01;;;;;;;21.67;12.93;;;;;;;3.63;59.73;102559.59;5013814;28;20041;-72
2022/03/01 05:41:29;;;;;;;18.60;12.18;;;;;;;3.65;58.94;102562.13;5013411;28;20037;-70
2022/03/01 05:43:54;;;;;;;20.88;13.00;;;;;;;3.63;59.81;102556.91;5014948;28;20040;-71
2022/03/01 05:46:19;;;;;;;23.38;14.02;;;;;;;3.62;58.60;102551.69;5014972;28;20112;-77
2022/03/01 05:48:45;;;;;;;23.55;13.00;;;;;;;3.59;58.45;102558.16;5027729;28;20034;-73
2022/03/01 05:51:10;;;;;;;20.25;12.52;;;;;;;3.58;57.55;102551.13;5034375;28;20033;-74
2022/03/01 05:53:35;;;;;;;24.85;12.75;;;;;;;3.53;58.32;102556.03;5034134;28;20477;-72
2022/03/01 05:56:01;;;;;;;19.02;12.00;;;;;;;3.52;58.85;102557.03;5033267;28;20037;-72
2022/03/01 05:58:26;;;;;;;21.77;12.45;;;;;;;3.52;58.93;102557.88;5034231;28;20031;-74
2022/03/01 06:00:51;;;;;;;23.27;13.35;;;;;;;3.52;59.33;102546.31;5032120;28;20029;-75
2022/03/01 06:03:17;;;;;;;22.23;12.45;;;;;;;3.53;59.27;102556.03;5028807;28;20038;-74
2022/03/01 06:05:42;;;;;;;20.25;12.95;;;;;;;3.53;59.00;102556.03;5014573;28;20048;-72
2022/03/01 06:08:07;;;;;;;19.33;12.75;;;;;;;3.51;60.11;102550.81;5014543;28;20048;-73
2022/03/01 06:10:32;;;;;;;19.92;12.63;;;;;;;3.48;59.47;102551.09;5028293;28;20041;-75
2022/03/01 06:12:58;;;;;;;19.92;12.63;;;;;;;3.51;59.26;102549.97;5014473;28;20435;-71
2022/03/01 06:15:23;;;;;;;22.77;13.25;;;;;;;3.48;59.54;102551.09;5014226;28;20021;-70
2022/03/01 06:17:48;;;;;;;20.08;13.30;;;;;;;3.46;59.60;102554.91;5038560;28;20037;-72
2022/03/01 06:20:14;;;;;;;21.98;12.65;;;;;;;3.45;60.48;102556.72;5032796;28;20484;-72
2022/03/01 06:22:41;;;;;;;21.38;12.98;;;;;;;3.44;59.97;102554.16;5033693;28;20025;-76
2022/03/01 06:25:07;;;;;;;21.15;13.70;;;;;;;3.45;60.20;102551.38;5034091;28;20072;-70
2022/03/01 06:27:36;;;;;;;21.00;13.60;;;;;;;3.40;59.74;102547.38;5033850;28;20030;-71
2022/03/01 06:30:06;;;;;;;21.02;13.43;;;;;;;3.44;60.39;102554.16;5033850;28;20231;-75
2022/03/01 06:32:31;;;;;;;24.58;13.48;;;;;;;3.42;60.06;102554.31;5024280;28;20034;-72
2022/03/01 06:34:57;;;;;;;20.33;12.95;;;;;;;3.44;60.55;102564.88;5014022;28;20029;-72
2022/03/01 06:37:22;;;;;;;25.48;13.73;;;;;;;3.45;60.75;102564.75;5013817;28;20812;-74
2022/03/01 06:39:50;;;;;;;24.35;14.10;;;;;;;3.44;61.29;102576.44;5013945;28;20034;-73
2022/03/01 06:42:16;;;;;;;22.95;14.75;;;;;;;3.44;60.81;102573.78;5012616;28;20441;-75
2022/03/01 06:44:41;;;;;;;21.52;13.65;;;;;;;3.42;61.21;102577.56;5016722;28;20075;-72
2022/03/01 06:47:07;;;;;;;19.42;13.48;;;;;;;3.45;60.87;102579.97;5015527;28;20062;-74
2022/03/01 06:49:32;;;;;;;23.48;13.77;;;;;;;3.44;60.80;102581.81;5013916;28;20473;-76
2022/03/01 06:51:57;;;;;;;20.63;14.98;;;;;;;3.48;61.46;102585.03;5013656;28;20455;-71
2022/03/01 06:54:23;;;;;;;20.05;13.45;;;;;;;3.44;60.27;102586.28;5013429;28;20034;-77
2022/03/01 06:56:48;;;;;;;23.65;13.85;;;;;;;3.51;60.59;102588.28;5013666;28;20037;-73
2022/03/01 06:59:15;;;;;;;21.80;13.85;;;;;;;3.53;59.60;102591.69;5013640;28;20042;-73
2022/03/01 07:01:40;;;;;;;23.10;14.10;;;;;;;3.57;59.85;102594.94;5011986;28;20030;-73
2022/03/01 07:04:06;;;;;;;22.50;13.98;;;;;;;3.60;60.48;102599.19;5033274;28;20075;-71
2022/03/01 07:06:31;;;;;;;27.85;14.63;;;;;;;3.57;59.77;102599.44;5033075;28;20088;-73
2022/03/01 07:08:56;;;;;;;24.52;14.32;;;;;;;3.61;59.72;102596.38;5033474;28;20034;-73
2022/03/01 07:11:22;;;;;;;25.58;14.52;;;;;;;3.67;58.95;102593.13;5032928;28;20029;-72
2022/03/01 07:13:48;;;;;;;25.92;15.68;;;;;;;3.69;60.16;102601.88;5032839;28;20397;-76
2022/03/01 07:16:13;;;;;;;24.65;14.68;;;;;;;3.71;58.50;102597.25;5033090;28;20492;-73
2022/03/01 07:18:38;;;;;;;28.10;15.18;;;;;;;3.75;59.19;102587.09;5031102;28;20044;-74
2022/03/01 07:21:03;;;;;;;27.60;14.65;;;;;;;3.76;58.97;102588.81;5031417;28;20036;-75
2022/03/01 07:23:29;;;;;;;23.55;14.10;;;;;;;3.81;58.44;102588.38;5032540;28;20034;-71
2022/03/01 07:25:55;;;;;;;25.35;15.57;;;;;;;3.79;57.65;102590.34;5031719;28;20034;-74
2022/03/01 07:28:21;;;;;;;24.23;15.25;;;;;;;3.82;58.95;102596.28;5032692;28;20458;-74
2022/03/01 07:30:46;;;;;;;22.95;14.55;;;;;;;3.83;57.49;102599.81;5032445;28;20040;-75
2022/03/01 07:33:11;;;;;;;21.33;14.07;;;;;;;3.86;57.22;102594.16;5017417;28;20061;-72
2022/03/01 07:35:37;;;;;;;22.20;13.88;;;;;;;3.89;58.46;102607.28;5013163;28;20034;-75
2022/03/01 07:38:02;;;;;;;23.05;14.57;;;;;;;3.93;58.24;102603.34;5012001;28;20034;-71
2022/03/01 07:40:27;;;;;;;22.25;15.60;;;;;;;3.98;59.34;102606.44;5011414;28;20037;-72
2022/03/01 07:42:53;;;;;;;21.42;14.85;;;;;;;4.03;59.09;102631.00;5012881;28;20036;-73
2022/03/01 07:45:19;;;;;;;24.27;15.07;;;;;;;4.06;58.84;102629.88;5012836;28;20025;-76
2022/03/01 07:47:46;;;;;;;23.55;15.00;;;;;;;4.10;59.56;102627.78;5024814;28;20029;-80
2022/03/01 07:50:12;;;;;;;23.15;14.85;;;;;;;4.07;58.90;102605.63;5031191;28;20037;-80
2022/03/01 07:52:37;;;;;;;24.05;15.38;;;;;;;4.12;60.27;102607.03;5032242;28;20043;-80
2022/03/01 07:55:04;;;;;;;25.80;15.68;;;;;;;4.13;59.52;102604.22;5032540;28;20105;-78
2022/03/01 07:57:29;;;;;;;22.27;16.17;;;;;;;4.14;59.07;102600.56;5032524;28;20473;-79
2022/03/01 07:59:54;;;;;;;26.38;15.32;;;;;;;4.16;58.37;102589.72;5031250;28;20034;-80
2022/03/01 08:02:20;;;;;;;23.85;15.68;;;;;;;4.19;58.03;102602.81;5017399;28;20045;-77
2022/03/01 08:04:46;;;;;;;23.25;14.40;;;;;;;4.21;58.64;102600.84;5012167;28;20041;-79
2022/03/01 08:07:12;;;;;;;23.45;14.27;;;;;;;4.22;56.99;102621.31;4978524;28;20371;-77
2022/03/01 08:09:44;;;;;;;25.00;15.18;;;;;;;4.20;59.18;102613.41;5011393;28;20041;-78
2022/03/01 08:12:10;;;;;;;21.05;14.32;;;;;;;4.28;60.09;102625.25;5010837;28;20030;-76
2022/03/01 08:14:35;;;;;;;24.55;14.57;;;;;;;4.31;57.57;102623.13;5010776;28;20030;-75
2022/03/01 08:17:02;;;;;;;27.67;14.68;;;;;;;4.32;57.42;102616.81;5011339;28;20179;-75
2022/03/01 08:19:27;;;;;;;22.88;13.63;;;;;;;4.36;58.25;102620.03;5012171;28;20022;-76
2022/03/01 08:21:53;;;;;;;21.63;14.20;;;;;;;4.40;56.88;102614.25;5012550;28;20033;-76
2022/03/01 08:24:18;;;;;;;21.52;14.00;;;;;;;4.42;57.91;102625.69;5012441;28;20040;-78
2022/03/01 08:26:43;;;;;;;23.35;14.27;;;;;;;4.44;57.40;102621.03;5012572;28;20384;-74
2022/03/01 08:29:09;;;;;;;21.05;13.75;;;;;;;4.48;57.98;102620.75;5011184;28;20125;-76
2022/03/01 08:31:36;;;;;;;20.60;14.35;;;;;;;4.52;57.73;102624.84;5018185;28;20034;-75
2022/03/01 08:34:01;;;;;;;20.52;14.05;;;;;;;4.56;57.42;102635.16;5034997;28;20117;-74
2022/03/01 08:36:27;;;;;;;24.80;13.75;;;;;;;4.59;58.27;102634.03;5034539;28;20125;-76
2022/03/01 08:38:52;;;;;;;25.67;14.52;;;;;;;4.60;57.02;102627.66;5035550;28;20124;-74
2022/03/01 08:41:18;;;;;;;23.75;14.02;;;;;;;4.64;57.64;102633.59;5035937;28;20095;-75
2022/03/01 08:43:43;;;;;;;26.60;14.60;;;;;;;4.69;57.33;102639.38;5035344;28;20030;-75
2022/03/01 08:46:13;;;;;;;23.10;14.48;;;;;;;4.70;58.10;102628.50;5030525;28;20034;-76
2022/03/01 08:48:39;;;;;;;22.02;14.02;;;;;;;4.76;58.02;102637.81;5015513;28;20109;-75
2022/03/01 08:51:05;;;;;;;23.70;14.30;;;;;;;4.83;57.55;102638.09;5016278;28;20100;-76
2022/03/01 08:53:32;;;;;;;22.55;13.90;;;;;;;4.89;56.88;102645.56;5015437;28;20025;-75
2022/03/01 08:55:58;;;;;;;23.40;14.85;;;;;;;4.95;58.23;102648.53;5015898;28;20033;-75
2022/03/01 08:58:23;;;;;;;22.50;14.00;;;;;;;5.02;57.70;102656.84;5015808;28;20041;-76
2022/03/01 09:00:49;;;;;;;21.10;13.82;;;;;;;5.07;57.91;102646.53;5014049;28;20117;-76
2022/03/01 09:03:14;;;;;;;25.20;14.88;;;;;;;5.19;56.70;102657.94;5015608;28;20112;-76
2022/03/01 09:05:40;;;;;;;21.88;15.05;;;;;;;5.27;57.43;102659.91;5015324;28;20080;-76
2022/03/01 09:08:05;;;;;;;23.00;14.02;;;;;;;5.30;55.89;102662.31;5015759;28;20355;-76
2022/03/01 09:10:31;;;;;;;22.13;14.07;;;;;;;5.36;57.03;102664.41;5015495;28;20030;-76
2022/03/01 09:12:58;;;;;;;21.65;14.05;;;;;;;5.40;54.79;102667.63;5022524;28;20376;-76
2022/03/01 09:15:26;;;;;;;24.35;14.20;;;;;;;5.47;55.48;102668.75;5034190;28;20041;-76
2022/03/01 09:17:51;;;;;;;22.33;14.55;;;;;;;5.50;55.44;102653.19;5033907;28;20022;-76
2022/03/01 09:20:17;;;;;;;21.98;13.82;;;;;;;5.54;55.07;102647.53;5032739;28;20487;-77
2022/03/01 09:22:43;;;;;;;19.88;13.32;;;;;;;5.58;55.22;102655.13;5014900;28;20034;-75
2022/03/01 09:25:08;;;;;;;20.38;13.68;;;;;;;5.60;55.32;102646.94;5013926;28;20121;-76
2022/03/01 09:27:34;;;;;;;20.67;13.50;;;;;;;5.63;56.05;102646.63;5014776;28;20069;-76
2022/03/01 09:29:59;;;;;;;21.70;13.23;;;;;;;5.68;55.20;102650.56;5022990;28;20030;-79
2022/03/01 09:32:26;;;;;;;28.65;14.07;;;;;;;5.76;56.23;102649.81;5023107;28;20033;-81
2022/03/01 09:34:51;;;;;;;19.65;13.27;;;;;;;5.81;56.49;102644.88;5021244;28;20034;-84
2022/03/01 09:37:17;;;;;;;20.30;13.52;;;;;;;5.85;56.12;102650.78;5014915;28;20030;-81
2022/03/01 09:39:42;;;;;;;22.67;13.80;;;;;;;5.92;55.60;102645.63;5024287;28;20168;-80
2022/03/01 09:42:08;;;;;;;21.50;13.68;;;;;;;5.98;55.69;102642.41;5034137;28;20477;-80
2022/03/01 09:44:34;;;;;;;22.00;14.43;;;;;;;6.05;55.04;102648.84;5025415;28;20076;-80
2022/03/01 09:47:00;;;;;;;24.50;14.05;;;;;;;6.08;55.41;102655.78;5025811;28;20412;-80
2022/03/01 09:49:27;;;;;;;23.65;14.48;;;;;;;6.14;56.36;102658.69;5014918;28;20120;-82
2022/03/01 09:51:53;;;;;;;25.55;14.27;;;;;;;6.16;55.42;102670.16;5013643;28;20033;-81
2022/03/01 09:54:18;;;;;;;21.70;13.88;;;;;;;6.19;53.97;102660.97;5014579;28;20393;-81
2022/03/01 09:56:44;;;;;;;21.15;13.23;;;;;;;6.18;54.62;102660.09;5014484;28;20034;-81
2022/03/01 09:59:09;;;;;;;20.33;14.05;;;;;;;6.23;54.47;102658.81;5025643;28;20034;-81
2022/03/01 10:01:35;;;;;;;23.10;14.07;;;;;;;6.26;54.31;102674.63;5029685;28;20033;-80
2022/03/01 10:04:11;;;;;;;20.17;14.18;;;;;;;6.27;53.63;102674.47;5027852;28;20116;-80
2022/03/01 10:06:44;;;;;;;22.90;14.38;;;;;;;6.30;55.33;102671.47;5032958;28;20480;-80
2022/03/01 10:09:23;;;;;;;22.70;13.52;;;;;;;6.33;53.90;102670.34;5032559;28;20034;-81
2022/03/01 10:11:50;;;;;;;19.63;12.50;;;;;;;6.38;53.60;102668.88;5026040;28;20092;-81
2022/03/01 10:14:35;;;;;;;20.02;13.40;;;;;;;6.41;53.84;102677.66;5021102;28;20046;-81
2022/03/01 10:17:13;;;;;;;20.48;13.32;;;;;;;6.41;54.52;102673.09;5042124;28;20499;-80
2022/03/01 10:19:38;;;;;;;18.05;12.82;;;;;;;6.38;52.09;102668.03;5050060;28;20032;-78
2022/03/01 10:22:03;;;;;;;24.60;14.00;;;;;;;6.43;53.37;102664.88;5034783;28;20053;-77
2022/03/01 10:24:30;;;;;;;22.65;13.90;;;;;;;6.50;53.75;102655.22;5035849;28;20032;-74
2022/03/01 10:27:05;;;;;;;21.00;13.32;;;;;;;6.53;54.66;102661.13;5036314;28;20037;-76
2022/03/01 10:29:32;;;;;;;20.23;13.00;;;;;;;6.54;54.13;102653.91;5034242;28;20393;-80
2022/03/01 10:32:09;;;;;;;23.00;12.98;;;;;;;6.68;54.00;102665.97;5037695;28;20032;-76
2022/03/01 10:34:34;;;;;;;20.55;13.27;;;;;;;6.72;53.62;102649.34;5035112;28;20396;-81
2022/03/01 10:37:00;;;;;;;22.30;13.27;;;;;;;6.81;54.40;102652.09;5032076;28;20021;-79
2022/03/01 10:39:30;;;;;;;22.27;13.23;;;;;;;6.83;52.99;102650.97;5032391;28;20033;-73
2022/03/01 10:41:56;;;;;;;21.85;12.98;;;;;;;6.84;51.83;102649.97;5033467;28;20040;-77
2022/03/01 10:44:25;;;;;;;20.23;13.05;;;;;;;6.91;52.92;102655.56;5032121;28;20029;-79
2022/03/01 10:46:52;;;;;;;18.10;12.77;;;;;;;6.98;52.34;102647.72;5033149;28;20422;-77
2022/03/01 10:49:25;;;;;;;21.70;13.13;;;;;;;7.06;52.59;102645.91;5024704;28;20022;-78
2022/03/01 10:51:51;;;;;;;20.80;13.10;;;;;;;7.12;51.09;102652.50;5022963;28;20489;-77
2022/03/01 10:54:34;;;;;;;21.20;13.68;;;;;;;7.18;52.53;102659.97;5032841;28;20056;-77
2022/03/01 10:57:02;;;;;;;20.25;12.77;;;;;;;7.27;52.00;102659.00;5030851;28;20037;-79
2022/03/01 10:59:30;;;;;;;23.15;13.98;;;;;;;7.32;50.19;102672.00;5044821;28;20044;-79
2022/03/01 11:01:56;;;;;;;20.55;13.52;;;;;;;7.37;51.85;102667.00;5011774;28;20123;-80
2022/03/01 11:04:22;;;;;;;19.75;13.32;;;;;;;7.45;51.39;102667.03;5015298;28;20037;-81
2022/03/01 11:06:48;;;;;;;20.77;13.20;;;;;;;7.48;50.85;102665.88;5031558;28;20048;-80
2022/03/01 11:09:14;;;;;;;19.45;13.63;;;;;;;7.44;50.28;102667.19;5026260;28;20034;-78
2022/03/01 11:11:41;;;;;;;20.00;12.98;;;;;;;7.44;50.67;102665.34;5022231;28;20112;-78